createdAt,value
2022-12-11T00:04:54.461Z,99950.38
2022-12-11T00:09:55.642Z,99956.91
2022-12-11T00:14:56.770Z,99956.91
2022-12-11T00:19:57.942Z,99957.50
2022-12-11T00:24:59.130Z,99957.63
2022-12-11T00:30:00.276Z,99959.03
2022-12-11T00:35:01.406Z,99964.34
2022-12-11T00:40:02.619Z,99958.97
2022-12-11T00:45:03.757Z,99964.94
2022-12-11T00:50:05.034Z,99951.44
2022-12-11T00:55:06.231Z,99964.56
2022-12-11T01:00:07.442Z,99951.22
2022-12-11T01:05:09.207Z,99957.09
2022-12-11T01:10:25.830Z,99953.38
2022-12-11T01:15:27.103Z,99949.06
2022-12-11T01:20:28.305Z,99956.00
2022-12-11T01:25:29.487Z,99960.81
2022-12-11T01:30:30.714Z,99959.81
2022-12-11T01:35:32.562Z,99950.16
2022-12-11T01:40:33.870Z,99955.22
2022-12-11T01:45:35.094Z,99951.47
2022-12-11T01:50:36.359Z,99946.94
2022-12-11T01:55:37.555Z,99941.28
2022-12-11T02:00:38.749Z,99942.22
2022-12-11T02:05:39.945Z,99941.69
2022-12-11T02:10:41.191Z,99940.22
2022-12-11T02:15:42.437Z,99941.59
2022-12-11T02:20:43.588Z,99937.28
2022-12-11T02:25:44.744Z,99935.03
2022-12-11T02:30:45.893Z,99939.50
2022-12-11T02:35:47.227Z,99926.59
2022-12-11T02:40:48.437Z,99920.66
2022-12-11T02:45:49.624Z,99917.03
2022-12-11T02:50:50.807Z,99923.09
2022-12-11T02:55:51.977Z,99922.47
2022-12-11T03:00:53.181Z,99920.53
2022-12-11T03:05:54.426Z,99911.88
2022-12-11T03:10:55.560Z,99911.47
2022-12-11T03:15:56.769Z,99912.50
2022-12-11T03:20:58.014Z,99908.44
2022-12-11T03:25:59.189Z,99908.44
2022-12-11T03:31:00.428Z,99914.38
2022-12-11T03:36:01.662Z,99917.19
2022-12-11T03:41:03.030Z,99925.78
2022-12-11T03:46:04.253Z,99918.19
2022-12-11T03:51:05.449Z,99917.63
2022-12-11T03:56:06.732Z,99913.59
2022-12-11T04:01:07.923Z,99911.09
2022-12-11T04:06:09.094Z,99909.19
2022-12-11T04:11:29.080Z,99905.59
2022-12-11T04:16:30.224Z,99910.41
2022-12-11T04:21:49.882Z,99906.22
2022-12-11T04:26:51.085Z,99903.09
2022-12-11T04:31:52.255Z,99906.88
2022-12-11T04:36:53.387Z,99901.69
2022-12-11T04:41:54.579Z,99900.91
2022-12-11T04:46:55.780Z,99899.19
2022-12-11T04:51:56.993Z,99901.91
2022-12-11T04:56:58.123Z,99886.66
2022-12-11T05:01:59.626Z,99887.31
2022-12-11T05:07:00.862Z,99886.19
2022-12-11T05:12:02.043Z,99883.69
2022-12-11T05:17:03.203Z,99884.81
2022-12-11T05:22:04.352Z,99880.72
2022-12-11T05:27:05.554Z,99881.19
2022-12-11T05:32:06.731Z,99878.84
2022-12-11T05:37:07.929Z,99879.63
2022-12-11T05:42:09.055Z,99872.34
2022-12-11T05:47:10.992Z,99862.47
2022-12-11T05:52:12.144Z,99860.44
2022-12-11T05:57:13.293Z,99866.06
2022-12-11T06:02:14.522Z,99860.34
2022-12-11T06:07:15.822Z,99859.81
2022-12-11T06:12:17.011Z,99871.47
2022-12-11T06:17:18.181Z,99869.69
2022-12-11T06:22:19.395Z,99857.53
2022-12-11T06:27:20.691Z,99858.88
2022-12-11T06:32:21.844Z,99861.78
2022-12-11T06:37:23.071Z,99860.50
2022-12-11T06:42:24.223Z,99862.09
2022-12-11T06:47:25.421Z,99863.09
2022-12-11T06:52:29.712Z,99864.13
2022-12-11T06:57:30.857Z,99868.81
2022-12-11T07:02:32.279Z,99865.22
2022-12-11T07:07:33.482Z,99867.56
2022-12-11T07:12:34.707Z,99869.16
2022-12-11T07:17:35.914Z,99875.88
2022-12-11T07:22:41.604Z,99879.47
2022-12-11T07:27:45.963Z,99881.81
2022-12-11T07:32:47.268Z,99885.19
2022-12-11T07:37:48.529Z,99831.22
2022-12-11T07:42:49.765Z,99883.94
2022-12-11T07:47:50.969Z,99883.69
2022-12-11T07:52:52.554Z,99881.41
2022-12-11T07:57:53.708Z,99878.38
2022-12-11T08:02:54.910Z,99872.13
2022-12-11T08:07:56.219Z,99882.75
2022-12-11T08:12:57.466Z,99870.63
2022-12-11T08:17:58.669Z,99870.31
2022-12-11T08:22:59.869Z,99874.53
2022-12-11T08:28:01.047Z,99875.09
2022-12-11T08:33:02.342Z,99873.81
2022-12-11T08:38:03.535Z,99874.16
2022-12-11T08:43:04.837Z,99871.31
2022-12-11T08:48:06.084Z,99861.84
2022-12-11T08:53:07.290Z,99860.03
2022-12-11T08:58:08.560Z,99856.75
2022-12-11T09:03:12.753Z,99860.63
2022-12-11T09:08:14.545Z,99868.47
2022-12-11T09:13:15.826Z,99866.22
2022-12-11T09:18:17.030Z,99872.56
2022-12-11T09:23:18.185Z,99879.25
2022-12-11T09:28:19.835Z,99881.91
2022-12-11T09:33:21.103Z,99873.16
2022-12-11T09:38:22.294Z,99877.81
2022-12-11T09:43:23.460Z,99876.28
2022-12-11T09:48:24.717Z,99869.50
2022-12-11T09:53:29.688Z,99873.63
2022-12-11T09:58:34.738Z,99874.38
2022-12-11T10:03:35.969Z,99867.38
2022-12-11T10:08:37.201Z,99858.13
2022-12-11T10:13:38.418Z,99858.13
2022-12-11T10:18:39.627Z,99860.16
2022-12-11T10:23:40.797Z,99854.53
2022-12-11T10:28:41.931Z,99845.53
2022-12-11T10:33:43.076Z,99843.09
2022-12-11T10:38:44.607Z,99838.41
2022-12-11T10:43:46.131Z,99832.44
2022-12-11T10:48:47.696Z,99831.25
2022-12-11T10:53:48.851Z,99828.50
2022-12-11T10:58:49.994Z,99825.50
2022-12-11T11:03:51.323Z,99819.03
2022-12-11T11:08:52.543Z,99807.75
2022-12-11T11:13:53.863Z,99804.16
2022-12-11T11:18:55.145Z,99806.63
2022-12-11T11:23:56.337Z,99806.28
2022-12-11T11:28:57.551Z,99804.94
2022-12-11T11:33:58.817Z,99801.13
2022-12-11T11:39:00.018Z,99796.09
2022-12-11T11:44:01.952Z,99791.44
2022-12-11T11:49:03.750Z,99783.19
2022-12-11T11:54:04.898Z,99778.59
2022-12-11T11:59:06.115Z,99778.13
2022-12-11T12:04:07.335Z,99769.97
2022-12-11T12:09:09.159Z,99772.34
2022-12-11T12:14:35.847Z,99770.59
2022-12-11T12:19:31.506Z,99777.31
2022-12-11T12:24:32.677Z,99770.06
2022-12-11T12:29:33.791Z,99776.78
2022-12-11T12:34:34.935Z,99770.03
2022-12-11T12:39:36.108Z,99768.41
2022-12-11T12:44:37.310Z,99764.25
2022-12-11T12:49:38.492Z,99759.88
2022-12-11T12:54:39.659Z,99759.00
2022-12-11T12:59:40.806Z,99750.72
2022-12-11T13:04:58.174Z,99740.97
2022-12-11T13:09:59.497Z,99738.88
2022-12-11T13:15:00.665Z,99736.09
2022-12-11T13:20:01.836Z,99741.84
2022-12-11T13:25:04.708Z,99745.09
2022-12-11T13:30:05.929Z,99739.34
2022-12-11T13:35:07.410Z,99739.50
2022-12-11T13:40:08.920Z,99746.50
2022-12-11T13:45:10.363Z,99740.16
2022-12-11T13:50:11.675Z,99736.03
2022-12-11T13:55:13.098Z,99753.81
2022-12-11T14:00:17.406Z,99759.44
2022-12-11T14:05:19.495Z,99760.13
2022-12-11T14:10:20.676Z,99770.97
2022-12-11T14:15:21.815Z,99764.41
2022-12-11T14:20:22.988Z,99763.84
2022-12-11T14:25:24.799Z,99771.31
2022-12-11T14:30:26.059Z,99774.16
2022-12-11T14:35:27.346Z,99775.41
2022-12-11T14:40:28.523Z,99779.00
2022-12-11T14:45:29.750Z,99781.59
2022-12-11T14:50:31.082Z,99776.69
2022-12-11T14:55:32.768Z,99770.94
2022-12-11T15:00:35.782Z,99786.44
2022-12-11T15:05:40.957Z,99781.72
2022-12-11T15:10:42.364Z,99782.75
2022-12-11T15:15:43.788Z,99781.72
2022-12-11T15:20:44.992Z,99783.53
2022-12-11T15:25:46.281Z,99784.31
2022-12-11T15:30:47.689Z,99787.88
2022-12-11T15:35:48.867Z,99791.97
2022-12-11T15:40:50.031Z,99784.25
2022-12-11T15:45:51.290Z,99789.44
2022-12-11T15:50:52.545Z,99789.91
2022-12-11T15:55:53.787Z,99797.69
2022-12-11T16:00:55.032Z,99795.56
2022-12-11T16:05:56.254Z,99805.94
2022-12-11T16:10:57.478Z,99807.50
2022-12-11T16:15:58.760Z,99804.16
2022-12-11T16:20:59.951Z,99803.34
2022-12-11T16:26:01.184Z,99799.97
2022-12-11T16:31:02.484Z,99801.00
2022-12-11T16:36:03.651Z,99798.09
2022-12-11T16:41:05.762Z,99788.75
2022-12-11T16:46:07.011Z,99797.53
2022-12-11T16:51:08.213Z,99797.53
2022-12-11T16:56:09.372Z,99791.28
2022-12-11T17:01:12.137Z,99791.03
2022-12-11T17:06:13.458Z,99790.47
2022-12-11T17:11:14.645Z,99794.88
2022-12-11T17:16:15.942Z,99794.28
2022-12-11T17:21:17.159Z,99788.47
2022-12-11T17:26:18.360Z,99782.72
2022-12-11T17:31:19.649Z,99786.81
2022-12-11T17:36:20.811Z,99789.56
2022-12-11T17:41:22.091Z,99783.81
2022-12-11T17:46:23.398Z,99793.09
2022-12-11T17:51:24.688Z,99786.06
2022-12-11T17:56:25.899Z,99790.69
2022-12-11T18:01:27.174Z,99784.97
2022-12-11T18:06:28.479Z,99787.09
2022-12-11T18:11:29.769Z,99788.16
2022-12-11T18:16:31.036Z,99786.16
2022-12-11T18:21:32.306Z,99794.69
2022-12-11T18:26:33.508Z,99793.41
2022-12-11T18:31:40.484Z,99782.53
2022-12-11T18:36:43.543Z,99779.41
2022-12-11T18:41:53.885Z,99785.38
2022-12-11T18:47:04.899Z,99788.94
2022-12-11T18:52:06.097Z,99791.81
2022-12-11T18:57:07.293Z,99795.03
2022-12-11T19:02:08.578Z,99795.31
2022-12-11T19:07:09.740Z,99783.97
2022-12-11T19:12:10.887Z,99790.22
2022-12-11T19:17:12.115Z,99793.91
2022-12-11T19:22:13.331Z,99789.28
2022-12-11T19:27:14.546Z,99797.03
2022-12-11T19:32:15.740Z,99791.84
2022-12-11T19:37:16.935Z,99798.03
2022-12-11T19:42:18.103Z,99798.03
2022-12-11T19:47:19.295Z,99798.28
2022-12-11T19:52:20.447Z,99799.84
2022-12-11T19:57:21.645Z,99792.88
2022-12-11T20:02:22.956Z,99790.81
2022-12-11T20:07:30.390Z,99792.63
2022-12-11T20:12:32.067Z,99793.41
2022-12-11T20:17:33.421Z,99794.97
2022-12-11T20:22:34.772Z,99790.59
2022-12-11T20:27:36.000Z,99797.03
2022-12-11T20:32:37.266Z,99793.91
2022-12-11T20:37:38.466Z,99788.72
2022-12-11T20:42:39.603Z,99778.13
2022-12-11T20:47:40.786Z,99777.28
2022-12-11T20:52:41.983Z,99771.34
2022-12-11T20:57:45.195Z,99784.81
2022-12-11T21:02:46.684Z,99780.88
2022-12-11T21:07:47.876Z,99784.22
2022-12-11T21:12:49.054Z,99777.94
2022-12-11T21:17:50.198Z,99788.78
2022-12-11T21:22:51.411Z,99782.78
2022-12-11T21:27:52.762Z,99784.38
2022-12-11T21:32:54.001Z,99778.66
2022-12-11T21:37:55.224Z,99785.84
2022-12-11T21:42:56.353Z,99790.56
2022-12-11T21:47:57.467Z,99778.66
2022-12-11T21:52:58.949Z,99782.25
2022-12-11T21:58:00.157Z,99785.31
2022-12-11T22:03:01.559Z,99791.53
2022-12-11T22:08:02.777Z,99795.88
2022-12-11T22:13:03.953Z,99792.75
2022-12-11T22:18:05.127Z,99805.44
2022-12-11T22:23:06.262Z,99808.34
2022-12-11T22:28:07.391Z,99812.50
2022-12-11T22:33:08.804Z,99818.44
2022-12-11T22:38:09.990Z,99825.66
2022-12-11T22:43:11.200Z,99809.38
2022-12-11T22:48:12.421Z,99807.13
2022-12-11T22:53:13.602Z,99816.91
2022-12-11T22:58:21.406Z,99823.72
2022-12-11T23:03:23.211Z,99823.25
2022-12-11T23:08:24.520Z,99821.97
2022-12-11T23:13:25.755Z,99828.50
2022-12-11T23:18:26.933Z,99820.28
2022-12-11T23:23:28.111Z,99823.63
2022-12-11T23:28:29.249Z,99825.75
2022-12-11T23:33:30.487Z,99828.09
2022-12-11T23:38:31.673Z,99826.53
2022-12-11T23:43:33.025Z,99827.22
2022-12-11T23:48:34.184Z,99833.91
2022-12-11T23:53:35.685Z,99837.72
2022-12-11T23:58:36.823Z,99834.38
